Vivre dans le Nogentais(Avant-lès-Marcilly et environs)

releves novembre

 

 

 

                 
    PRESSION TEMPERATURE HYGROMETRIE POINT DE WINDCHILL
DATE heure   EXTERIEUR EXTERIEUR ROSEE  
             
01.11.2009 12:03 1012,2 15,9 92 14,6 15,9
01.11.2009 16:03 1006 17,1 86 14,7 17,1
01.11.2009 20:03 1002,7 15,3 93 14,1 15,3
02.11.2009 00:03 1004,2 11,9 94 10,9 11,9
02.11.2009 04:03 1004,6 10,6 93 9,5 10,6
02.11.2009 08:03 1003,4 9,3 93 8,2 9,3
02.11.2009   1005,5 13,4 91,8 12,0 13,4
02.11.2009 12:03 1004,8 9,8 88 7,9 9,8
02.11.2009 16:03 1004,5 9,6 87 7,5 9,6
02.11.2009 20:03 1004,6 6,7 90 5,1 6,7
03.11.2009 00:03 1002,2 6,3 91 4,9 6,3
03.11.2009 04:03 1000,4 6,3 91 4,9 6,3
03.11.2009 08:03 999,3 6,9 93 5,8 6,9
03.11.2009   1002,6 7,6 90,0 6,0 7,6
03.11.2009 12:03 996,9 8,9 94 7,9 8,9
03.11.2009 16:03 994,6 11,9 95 11,1 11,9
03.11.2009 20:03 991,8 11,8 92 10,5 11,8
04.11.2009 00:03 988,3 10,3 93 9,2 10,3
04.11.2009 04:03 989,4 9,4 90 7,8 9,4
04.11.2009 08:03 992,6 7,3 88 5,4 7,3
04.11.2009   992,3 9,9 92,0 8,7 9,9
04.11.2009 12:03 993,7 10,5 82 7,5 10,5
04.11.2009 16:03 992,9 10,6 78 6,9 10,6
04.11.2009 20:03 993,9 8,3 83 5,5 8,3
05.11.2009 00:03 994,2 6,8 88 4,9 6,8
05.11.2009 04:03 994,6 7,1 89 5,4 7,1
05.11.2009 08:03 995,9 7,4 90 5,8 7,4
05.11.2009   994,2 8,5 85,0 6,0 8,5
05.11.2009 12:03 997,3 9,1 88 7,2 9,1
05.11.2009 16:03 998 10,5 82 7,5 10,5
05.11.2009 20:03 1001 7,8 92 6,5 7,8
06.11.2009 00:03 1003,1 6,4 93 5,3 6,4
06.11.2009 04:03 1005 4,9 93 3,8 4,9
06.11.2009 08:03 1006,9 3,9 93 2,8 3,9
06.11.2009   1001,9 7,1 90,2 5,5 7,1
06.11.2009 12:03 1008,3 8,5 92 7,2 8,5
06.11.2009 16:03 1007,9 9,8 84 7,2 9,8
06.11.2009 20:03 1006,5 7,8 86 5,6 7,8
07.11.2009 00:03 1003,1 7,3 88 5,4 7,3
07.11.2009 04:03 998,7 7,8 93 6,7 7,8
07.11.2009 08:03 997,9 8,2 92 6,9 8,2
07.11.2009   1003,7 8,2 89,2 6,5 8,2
07.11.2009 12:03 998 8,9 89 7,1 8,9
07.11.2009 16:03 999,4 9,8 83 7 9,8
07.11.2009 20:03 1001,4 5,4 90 3,8 5,4
08.11.2009 00:03 1001,7 4,1 91 2,7 4,1
08.11.2009 04:03 999,9 3,6 91 2,2 3,6
08.11.2009 08:03 999,7 3,8 93 2,7 3,8
08.11.2009   1000,0 5,9 89,5 4,3 5,9
08.11.2009 12:03 1001,5 7,8 89 6,1 7,8
08.11.2009 16:03 1002,9 8,8 84 6,2 8,8
08.11.2009 20:03 1006,7 5,6 87 3,6 5,6
09.11.2009 00:03 1008,4 2,9 91 1,5 2,9
09.11.2009 04:03 1009,5 4 92 2,8 4
09.11.2009 08:03 1011,4 4,7 92 3,5 4,7
09.11.2009   1006,7 5,6 89,2 4,0 5,6
09.11.2009 12:03 1012,3 6,1 89 4,4 6,1
09.11.2009 16:03 1012,9 7,4 85 5 7,4
09.11.2009 20:03 1013,7 6,9 89 5,2 6,9
10.11.2009 00:03 1014 6,9 91 5,5 6,9
10.11.2009 04:03 1013,5 6,9 92 5,6 6,9
10.11.2009 08:03 1013 5,3 92 4,1 5,3
10.11.2009   1013,2 6,6 89,7 5,0 6,6
10.11.2009 12:03 1012,9 6,8 91 5,4 6,8
10.11.2009 16:03 1011,4 7,6 86 5,4 7,6
10.11.2009 20:03 1011,3 4,1 89 2,4 4,1
11.11.2009 00:03 1011,2 4,2 92 3 4,2
11.11.2009 04:03 1010,7 3,9 93 2,8 3,9
11.11.2009 08:03 1010,3 2,8 93 1,7 2,8
11.11.2009   1011,3 4,9 90,7 3,5 4,9
11.11.2009 12:03 1010 6,3 91 4,9 6,3
11.11.2009 16:03 1008,8 7,4 83 4,7 7,4
11.11.2009 20:03 1008,6 3,9 89 2,2 3,9
12.11.2009 00:03 1007,1 3,6 91 2,2 3,6
12.11.2009 04:03 1006,3 5,4 91 4 5,4
12.11.2009 08:03 1007,7 7,5 94 6,6 7,5
12.11.2009   1008,1 5,7 89,8 4,1 5,7
12.11.2009 12:03 1009,2 11,4 95 10,6 11,4
12.11.2009 16:03 1008,9 12,3 87 10,2 12,3
12.11.2009 20:03 1008,5 11,1 93 10 9,1
13.11.2009 00:03 1009,6 11,3 93 10,2 11,3
13.11.2009 04:03 1010 11,6 91 10,1 11,6
13.11.2009 08:03 1010,1 11,2 90 9,6 11,2
13.11.2009   1009,4 11,5 91,5 10,1 11,2
13.11.2009 12:03 1010,4 14,3 85 11,8 14,3
13.11.2009 16:03 1009,1 15,6 79 11,9 15,6
13.11.2009 20:03 1008,3 13,3 83 10,4 13,3
14.11.2009 00:03 1005,6 13 82 10 13
14.11.2009 04:03 1003,4 14,7 75 10,3 14,7
14.11.2009 08:03 1004 14,8 72 9,8 14,8
14.11.2009   1006,8 18,5 66,2 14,3 79,3 10,7 14,3
14.11.2009 12:03 1007,5 19,5 68 12,3 90 10,7 12,3
14.11.2009 16:03 1008,1 18,2 65 13,9 76 9,7 13,9
14.11.2009 20:03 1010,7 20,2 71 11,9 81 8,7 11,9
15.11.2009 00:03 1012,3 19,1 72 10,4 84 7,8 10,4
15.11.2009 04:03 1013,1 17,8 68 9,4 87 7,3 7,5
15.11.2009 08:03 1011,8 18,6 66 10 83 7,2 10
15.11.2009   1010,6 18,9 68,3 11,3 83,5 8,6 11,0
15.11.2009 12:03 1012 19,7 64 13,8 73 9 13,8
15.11.2009 16:03 1010,5 19,8 67 13,2 77 9,2 13,2
15.11.2009 20:03 1010,1 18,8 70 11,1 83 8,3 11,1
16.11.2009 00:03 1008,5 18,3 70 10,9 88 9 10,9
16.11.2009 04:03 1005,8 17,5 69 10,8 91 9,4 10,8
16.11.2009 08:03 1006,4 18 68 12,6 90 11 12,6
16.11.2009   1008,9 18,7 68,0 12,1 83,7 9,3